Time;durP1;ratioP1;P1;durP2;ratioP2;P2;SDS_P1;SDS_P2;PMS_P1;PMS_P2;Temp;Humidity;BMP_temperature;BMP_pressure;BME280_temperature;BME280_humidity;BME280_pressure;Samples;Min_cycle;Max_cycle;Signal;HPM_P1;HPM_P2
2022/09/08 00:02:24;;;;;;;4.07;1.10;;;25.00;76.40;;;;;;4994850;28;20026;-73
2022/09/08 00:04:50;;;;;;;4.60;1.30;;;25.10;76.80;;;;;;4977549;28;20498;-74
2022/09/08 00:07:16;;;;;;;3.95;1.05;;;25.10;77.60;;;;;;4973200;28;20019;-73
2022/09/08 00:09:42;;;;;;;3.28;0.85;;;25.00;77.60;;;;;;4982918;28;20574;-74
2022/09/08 00:12:09;;;;;;;3.28;0.98;;;24.90;77.90;;;;;;4993798;28;20214;-74
2022/09/08 00:14:35;;;;;;;3.72;0.57;;;24.90;78.10;;;;;;4992667;28;20072;-72
2022/09/08 00:17:02;;;;;;;3.00;0.90;;;24.90;78.20;;;;;;4994779;28;20391;-73
2022/09/08 00:19:28;;;;;;;3.22;0.88;;;24.90;78.10;;;;;;4994781;28;20034;-72
2022/09/08 00:21:53;;;;;;;3.20;0.90;;;24.90;78.20;;;;;;4994559;28;20022;-75
2022/09/08 00:24:19;;;;;;;3.45;0.80;;;24.90;77.90;;;;;;4993927;28;20495;-72
2022/09/08 00:26:45;;;;;;;2.70;0.80;;;24.80;77.80;;;;;;4994682;28;20501;-72
2022/09/08 00:29:11;;;;;;;3.95;1.08;;;24.80;78.00;;;;;;4995079;28;20034;-72
2022/09/08 00:31:38;;;;;;;5.88;1.02;;;24.80;79.20;;;;;;4994523;28;20051;-73
2022/09/08 00:34:04;;;;;;;5.30;1.02;;;24.70;78.50;;;;;;4977462;28;20019;-74
2022/09/08 00:36:31;;;;;;;4.88;1.05;;;24.70;79.30;;;;;;4994446;28;20030;-73
2022/09/08 00:38:58;;;;;;;2.83;0.80;;;24.80;79.50;;;;;;4994224;28;20149;-74
2022/09/08 00:41:24;;;;;;;2.22;0.60;;;24.70;80.10;;;;;;4994354;28;20113;-74
2022/09/08 00:43:58;;;;;;;3.85;1.00;;;24.60;80.40;;;;;;4994306;28;20102;-72
2022/09/08 00:46:39;;;;;;;7.40;1.27;;;24.70;81.00;;;;;;4994000;28;20031;-73
2022/09/08 00:49:22;;;;;;;3.30;0.93;;;24.60;81.30;;;;;;4994465;28;20498;-73
2022/09/08 00:51:51;;;;;;;2.10;0.63;;;24.60;81.80;;;;;;4994069;28;20529;-73
2022/09/08 00:54:18;;;;;;;5.65;0.85;;;24.60;82.00;;;;;;4993961;28;20531;-73
2022/09/08 00:56:46;;;;;;;4.53;0.80;;;24.60;82.10;;;;;;4993968;28;20019;-73
2022/09/08 00:59:15;;;;;;;3.67;0.70;;;24.60;82.50;;;;;;4993438;28;20408;-73
2022/09/08 01:01:41;;;;;;;5.65;1.10;;;24.60;82.80;;;;;;4993971;28;20126;-74
2022/09/08 01:04:07;;;;;;;4.07;0.90;;;24.60;83.10;;;;;;4993879;28;20121;-74
2022/09/08 01:12:54;;;;;;;3.83;1.52;;;24.60;83.50;;;;;;4993231;28;20395;-75
2022/09/08 01:15:23;;;;;;;4.93;0.80;;;24.60;83.70;;;;;;4994187;28;20105;-73
2022/09/08 01:17:51;;;;;;;4.00;0.77;;;24.50;85.00;;;;;;4993736;28;20032;-73
2022/09/08 01:20:21;;;;;;;3.75;1.10;;;24.60;84.30;;;;;;4993858;28;20022;-74
2022/09/08 01:23:24;;;;;;;3.50;0.90;;;24.70;84.60;;;;;;4993417;28;20482;-73
2022/09/08 01:26:28;;;;;;;4.78;1.00;;;24.60;84.90;;;;;;4993606;28;20465;-73
2022/09/08 01:28:59;;;;;;;4.35;1.30;;;24.60;84.90;;;;;;4952623;28;20427;-73
2022/09/08 01:31:26;;;;;;;5.40;1.05;;;24.60;85.20;;;;;;4953013;29;20038;-73
2022/09/08 01:33:52;;;;;;;3.58;1.10;;;24.60;85.50;;;;;;4973215;28;20088;-74
2022/09/08 01:36:19;;;;;;;3.00;0.90;;;24.50;85.80;;;;;;4993484;28;20034;-76
2022/09/08 01:38:45;;;;;;;5.60;1.42;;;24.60;85.70;;;;;;4993694;28;20124;-73
2022/09/08 01:41:13;;;;;;;2.70;0.80;;;24.50;85.50;;;;;;4993712;28;20022;-73
2022/09/08 01:43:39;;;;;;;3.00;0.93;;;24.40;85.80;;;;;;4993516;28;20399;-73
2022/09/08 01:46:05;;;;;;;3.70;0.95;;;24.40;86.20;;;;;;4993616;28;20030;-73
2022/09/08 01:48:31;;;;;;;5.43;1.58;;;24.40;86.10;;;;;;4993861;28;20019;-75
2022/09/08 01:51:01;;;;;;;3.33;1.00;;;24.50;86.00;;;;;;4993355;28;20053;-74
2022/09/08 01:53:27;;;;;;;2.85;0.82;;;24.40;86.40;;;;;;4994381;28;20018;-74
2022/09/08 01:55:53;;;;;;;2.75;1.05;;;24.40;86.30;;;;;;4993583;28;20025;-72
2022/09/08 01:58:19;;;;;;;3.60;1.08;;;24.40;86.50;;;;;;4993795;28;20023;-76
2022/09/08 02:00:44;;;;;;;4.45;1.00;;;24.50;86.40;;;;;;4994189;28;20105;-79
2022/09/08 02:03:11;;;;;;;3.72;1.17;;;24.40;86.50;;;;;;4993658;28;20394;-73
2022/09/08 02:05:38;;;;;;;4.47;1.38;;;24.30;86.50;;;;;;4993943;28;20045;-73
2022/09/08 02:08:04;;;;;;;2.90;1.10;;;24.30;86.60;;;;;;4992776;28;20050;-73
2022/09/08 02:10:30;;;;;;;4.80;1.50;;;24.30;86.80;;;;;;4993314;28;20097;-73
2022/09/08 02:12:55;;;;;;;4.32;0.98;;;24.30;86.40;;;;;;4993271;28;20114;-74
2022/09/08 02:15:21;;;;;;;3.10;0.98;;;24.30;86.80;;;;;;4993253;28;20080;-73
2022/09/08 02:17:46;;;;;;;4.13;1.25;;;24.30;86.40;;;;;;4975741;28;20030;-74
2022/09/08 02:20:13;;;;;;;3.08;1.10;;;24.40;87.10;;;;;;4993109;28;20026;-73
2022/09/08 02:22:38;;;;;;;5.10;1.08;;;24.40;86.80;;;;;;4993318;28;20076;-73
2022/09/08 02:25:04;;;;;;;3.35;0.93;;;24.40;86.80;;;;;;4993078;28;20422;-73
2022/09/08 02:27:30;;;;;;;3.50;1.42;;;24.40;87.20;;;;;;4975023;28;20476;-73
2022/09/08 02:29:55;;;;;;;4.57;1.50;;;24.40;87.70;;;;;;4992996;28;20015;-73
2022/09/08 02:32:21;;;;;;;4.53;1.45;;;24.40;87.80;;;;;;4993084;28;20113;-73
2022/09/08 02:34:47;;;;;;;3.58;1.05;;;24.30;87.80;;;;;;4992785;28;20022;-74
2022/09/08 02:37:12;;;;;;;5.70;1.60;;;24.40;88.00;;;;;;4992585;28;20030;-75
2022/09/08 02:39:38;;;;;;;4.68;1.60;;;24.40;88.10;;;;;;4993039;28;20486;-74
2022/09/08 02:42:04;;;;;;;4.63;1.80;;;24.40;88.40;;;;;;4993053;28;20027;-73
2022/09/08 02:44:29;;;;;;;4.78;1.20;;;24.30;88.60;;;;;;4992782;28;20116;-74
2022/09/08 02:46:55;;;;;;;4.65;1.55;;;24.30;88.90;;;;;;4993023;28;20041;-73
2022/09/08 02:49:20;;;;;;;4.43;1.45;;;24.20;89.00;;;;;;4995569;28;20018;-74
2022/09/08 02:51:46;;;;;;;4.50;1.75;;;24.30;88.80;;;;;;4996478;28;20426;-74
2022/09/08 02:54:12;;;;;;;3.95;1.65;;;24.20;89.10;;;;;;4996256;28;20023;-76
2022/09/08 02:56:37;;;;;;;3.47;1.58;;;24.30;88.80;;;;;;4996402;28;20518;-73
2022/09/08 02:59:03;;;;;;;3.83;1.70;;;24.40;88.80;;;;;;4996235;28;20532;-74
2022/09/08 03:01:28;;;;;;;6.55;1.77;;;24.30;89.10;;;;;;4996137;28;20479;-73
2022/09/08 03:03:54;;;;;;;5.50;1.85;;;24.20;89.50;;;;;;4995907;28;20507;-73
2022/09/08 03:06:20;;;;;;;5.22;1.90;;;24.20;89.60;;;;;;4996175;28;20498;-73
2022/09/08 03:08:49;;;;;;;4.25;1.80;;;24.20;89.40;;;;;;4996944;28;20098;-72
2022/09/08 03:11:16;;;;;;;5.22;1.90;;;24.20;89.30;;;;;;4996279;28;20502;-73
2022/09/08 03:13:42;;;;;;;2.88;1.65;;;24.10;89.30;;;;;;4996067;28;20053;-74
2022/09/08 03:16:07;;;;;;;4.93;1.92;;;24.10;89.50;;;;;;4996020;28;20022;-73
2022/09/08 03:18:33;;;;;;;3.67;2.13;;;24.10;89.80;;;;;;4978545;28;20069;-74
2022/09/08 03:21:01;;;;;;;4.90;2.40;;;24.10;89.90;;;;;;4995794;28;20037;-73
2022/09/08 03:23:27;;;;;;;4.90;2.03;;;24.20;89.80;;;;;;4995863;28;20022;-73
2022/09/08 03:25:53;;;;;;;4.30;2.30;;;24.10;89.70;;;;;;4995679;28;20039;-73
2022/09/08 03:28:24;;;;;;;6.00;2.38;;;24.20;89.70;;;;;;4995840;28;20049;-74
2022/09/08 03:30:50;;;;;;;7.00;2.93;;;24.10;90.00;;;;;;4995800;28;20034;-74
2022/09/08 03:33:16;;;;;;;5.30;2.53;;;24.20;90.00;;;;;;4995645;28;20034;-74
2022/09/08 03:35:43;;;;;;;7.55;2.97;;;24.10;90.00;;;;;;4995664;28;20037;-75
2022/09/08 03:38:08;;;;;;;7.00;2.88;;;24.20;90.30;;;;;;4978031;28;20535;-73
2022/09/08 03:40:34;;;;;;;9.43;2.95;;;24.10;90.10;;;;;;4996005;28;20117;-74
2022/09/08 03:43:01;;;;;;;7.95;3.10;;;24.10;90.10;;;;;;4995329;28;20026;-72
2022/09/08 03:45:28;;;;;;;3.97;3.00;;;24.20;90.10;;;;;;4995424;28;20395;-73
2022/09/08 03:47:53;;;;;;;5.72;2.47;;;24.10;90.10;;;;;;4995092;28;20022;-73
2022/09/08 03:50:19;;;;;;;8.02;2.83;;;24.10;90.20;;;;;;4995526;28;20089;-72
2022/09/08 03:52:44;;;;;;;5.78;2.72;;;24.00;90.30;;;;;;4995324;28;20026;-76
2022/09/08 03:55:11;;;;;;;5.75;3.05;;;24.00;90.40;;;;;;4995826;28;20085;-73
2022/09/08 03:57:37;;;;;;;8.18;3.20;;;24.00;90.40;;;;;;4995376;28;20089;-75
2022/09/08 04:00:05;;;;;;;6.35;2.70;;;24.00;90.40;;;;;;4994113;28;20023;-74
2022/09/08 04:02:31;;;;;;;4.22;2.22;;;23.90;90.40;;;;;;4994409;28;20038;-75
2022/09/08 04:04:58;;;;;;;7.25;3.38;;;24.00;90.40;;;;;;4994989;28;20026;-73
2022/09/08 04:07:29;;;;;;;5.25;2.95;;;24.00;90.40;;;;;;4995051;28;20025;-73
2022/09/08 04:09:56;;;;;;;4.40;2.47;;;24.00;90.40;;;;;;4994866;28;20029;-73
2022/09/08 04:12:23;;;;;;;4.85;2.25;;;23.90;90.40;;;;;;4994760;28;20033;-76
2022/09/08 04:14:49;;;;;;;7.75;3.33;;;23.80;90.40;;;;;;4995138;28;20030;-69
2022/09/08 04:17:16;;;;;;;5.80;3.28;;;24.00;90.30;;;;;;4994409;28;20030;-73
2022/09/08 04:19:42;;;;;;;5.65;3.05;;;24.00;90.30;;;;;;4995040;28;20057;-73
2022/09/08 04:22:07;;;;;;;8.82;3.83;;;23.90;90.40;;;;;;4994638;28;20077;-74
2022/09/08 04:24:33;;;;;;;5.90;3.25;;;23.90;90.30;;;;;;4994646;28;20483;-74
2022/09/08 04:26:59;;;;;;;6.38;3.35;;;23.90;90.40;;;;;;4994471;28;20042;-74
2022/09/08 04:29:26;;;;;;;6.00;2.90;;;23.90;90.40;;;;;;4994705;28;20049;-74
2022/09/08 04:31:52;;;;;;;6.25;3.08;;;23.80;90.40;;;;;;4994410;28;20430;-75
2022/09/08 04:34:17;;;;;;;4.80;3.33;;;23.90;90.40;;;;;;4994439;28;20110;-79
2022/09/08 04:36:43;;;;;;;5.93;3.65;;;23.80;90.40;;;;;;4994723;28;20026;-74
2022/09/08 04:39:10;;;;;;;5.65;3.25;;;23.80;90.40;;;;;;4994364;28;20053;-74
2022/09/08 04:41:36;;;;;;;5.45;2.50;;;23.90;90.40;;;;;;4994334;28;20022;-75
2022/09/08 04:44:03;;;;;;;6.00;3.05;;;23.80;90.30;;;;;;4994339;28;20105;-74
2022/09/08 04:46:33;;;;;;;6.05;2.70;;;23.80;90.30;;;;;;4993783;28;20130;-75
2022/09/08 04:48:59;;;;;;;6.28;2.65;;;23.80;90.30;;;;;;4994748;28;20058;-74
2022/09/08 04:51:27;;;;;;;4.70;2.22;;;23.70;90.30;;;;;;4994071;28;20035;-74
2022/09/08 04:53:53;;;;;;;6.07;3.17;;;23.70;90.30;;;;;;4994395;28;20026;-76
2022/09/08 04:56:22;;;;;;;5.68;3.22;;;23.80;90.20;;;;;;4994284;28;20030;-77
2022/09/08 04:58:48;;;;;;;6.03;2.88;;;23.70;90.20;;;;;;4994051;28;20468;-78
2022/09/08 05:01:23;;;;;;;5.45;2.63;;;23.70;90.30;;;;;;4990298;28;20057;-74
2022/09/08 05:03:54;;;;;;;6.28;2.80;;;23.70;90.20;;;;;;4990783;28;20042;-77
2022/09/08 05:06:20;;;;;;;6.03;2.65;;;23.80;90.00;;;;;;4992427;28;20065;-76
2022/09/08 05:08:48;;;;;;;4.75;2.50;;;23.80;89.90;;;;;;4992078;28;20080;-76
2022/09/08 05:11:15;;;;;;;5.82;2.50;;;23.70;89.80;;;;;;4976337;28;20109;-74
2022/09/08 05:13:41;;;;;;;7.35;2.58;;;23.70;89.60;;;;;;4993586;28;20026;-74
2022/09/08 05:16:10;;;;;;;4.95;2.33;;;23.70;89.20;;;;;;4994119;28;20030;-75
2022/09/08 05:18:36;;;;;;;8.35;2.70;;;23.70;89.20;;;;;;4989340;28;20027;-75
2022/09/08 05:21:03;;;;;;;4.18;2.13;;;23.70;89.10;;;;;;4984308;28;20356;-75
2022/09/08 05:23:29;;;;;;;3.63;1.38;;;23.60;89.30;;;;;;4990954;28;20507;-75
2022/09/08 05:26:01;;;;;;;3.05;1.25;;;23.60;89.80;;;;;;4993512;28;20069;-75
2022/09/08 05:28:29;;;;;;;2.75;0.85;;;23.60;89.80;;;;;;4993763;28;20025;-75
2022/09/08 05:30:55;;;;;;;4.07;1.38;;;23.60;90.00;;;;;;4993745;28;20058;-75
2022/09/08 05:33:21;;;;;;;4.35;1.98;;;23.60;89.90;;;;;;4993901;28;20108;-76
2022/09/08 05:35:47;;;;;;;5.60;1.50;;;23.70;89.40;;;;;;4993316;28;20025;-76
2022/09/08 05:38:13;;;;;;;5.10;1.27;;;23.70;89.60;;;;;;4980276;28;20026;-75
2022/09/08 05:40:39;;;;;;;4.03;1.55;;;23.70;89.50;;;;;;4991573;28;20479;-76
2022/09/08 05:43:04;;;;;;;5.15;1.45;;;23.70;89.40;;;;;;4992802;28;20056;-78
2022/09/08 05:45:30;;;;;;;3.13;1.30;;;23.70;89.30;;;;;;4993058;28;20542;-77
2022/09/08 05:47:56;;;;;;;3.75;1.48;;;23.70;88.90;;;;;;4978989;28;20498;-75
2022/09/08 05:50:21;;;;;;;3.70;1.30;;;23.80;89.00;;;;;;4978175;28;20022;-76
2022/09/08 05:52:47;;;;;;;8.15;1.40;;;23.80;89.00;;;;;;4989124;28;20028;-76
2022/09/08 05:55:14;;;;;;;2.78;1.13;;;23.80;89.10;;;;;;4990578;28;20022;-78
2022/09/08 05:57:40;;;;;;;5.07;1.33;;;23.70;88.90;;;;;;4991658;28;20041;-75
2022/09/08 06:00:07;;;;;;;3.28;1.23;;;23.80;88.60;;;;;;4991116;28;20014;-77
2022/09/08 06:02:33;;;;;;;6.28;1.95;;;23.80;88.20;;;;;;4972084;28;20109;-75
2022/09/08 06:04:58;;;;;;;8.07;1.80;;;23.80;89.00;;;;;;4993300;28;20542;-76
2022/09/08 06:07:25;;;;;;;6.93;2.08;;;23.80;88.90;;;;;;4985990;28;20085;-75
2022/09/08 06:09:51;;;;;;;9.15;2.63;;;23.80;89.00;;;;;;4977029;28;20034;-75
2022/09/08 06:12:17;;;;;;;2.80;1.55;;;23.80;88.70;;;;;;4987527;28;20373;-74
2022/09/08 06:14:42;;;;;;;5.05;2.22;;;23.80;88.60;;;;;;4989144;28;20057;-74
2022/09/08 06:17:08;;;;;;;5.90;2.05;;;23.80;88.60;;;;;;4990162;28;20030;-75
2022/09/08 06:19:34;;;;;;;4.60;1.77;;;23.70;88.70;;;;;;4974264;28;20077;-75
2022/09/08 06:21:59;;;;;;;6.90;2.10;;;23.70;88.70;;;;;;4991181;28;20026;-75
2022/09/08 06:24:25;;;;;;;5.97;2.08;;;23.70;88.80;;;;;;4992107;28;20034;-76
2022/09/08 06:27:12;;;;;;;6.50;2.28;;;23.70;88.80;;;;;;4983585;28;20049;-75
2022/09/08 06:29:50;;;;;;;6.68;2.30;;;23.70;88.90;;;;;;4993038;28;20061;-75
2022/09/08 06:32:46;;;;;;;8.68;2.28;;;23.70;88.90;;;;;;4994281;28;20031;-76
2022/09/08 06:35:30;;;;;;;3.70;1.60;;;23.70;88.90;;;;;;4992841;28;20475;-76
2022/09/08 06:37:59;;;;;;;6.00;1.90;;;23.70;88.90;;;;;;4996386;28;20121;-75
2022/09/08 06:40:47;;;;;;;6.38;2.15;;;23.70;88.90;;;;;;4992512;28;20022;-75
2022/09/08 06:43:42;;;;;;;5.82;1.92;;;23.70;89.00;;;;;;4995301;28;20085;-75
2022/09/08 06:46:31;;;;;;;4.55;2.13;;;23.70;88.90;;;;;;4988734;28;20045;-75
2022/09/08 06:48:58;;;;;;;4.97;1.70;;;23.70;88.90;;;;;;4996717;28;20030;-75
2022/09/08 06:51:43;;;;;;;6.78;1.88;;;23.70;88.90;;;;;;4997120;28;20045;-75
2022/09/08 06:54:08;;;;;;;8.68;2.03;;;23.70;89.00;;;;;;4993753;28;20061;-75
2022/09/08 06:56:52;;;;;;;7.38;2.00;;;23.70;89.20;;;;;;4991210;28;20065;-75
2022/09/08 06:59:39;;;;;;;4.72;1.83;;;23.70;89.10;;;;;;4977545;28;20081;-75
2022/09/08 07:02:23;;;;;;;5.20;1.92;;;23.70;88.90;;;;;;4983903;28;20026;-75
2022/09/08 07:05:02;;;;;;;3.65;1.73;;;23.60;89.00;;;;;;4978028;28;20113;-75
2022/09/08 07:07:43;;;;;;;7.20;1.95;;;23.70;89.10;;;;;;4996065;28;20037;-75
2022/09/08 07:10:21;;;;;;;7.13;2.03;;;23.70;89.00;;;;;;4976508;28;20030;-76
2022/09/08 07:13:01;;;;;;;5.75;2.38;;;23.60;89.30;;;;;;4995673;28;20034;-76
2022/09/08 07:16:20;;;;;;;5.05;1.75;;;23.60;89.10;;;;;;4975784;28;20103;-76
2022/09/08 07:19:04;;;;;;;6.65;2.10;;;23.70;89.20;;;;;;4940938;28;20191;-80
2022/09/08 07:22:02;;;;;;;5.43;1.70;;;23.70;88.90;;;;;;4979001;28;20403;-77
2022/09/08 07:24:34;;;;;;;6.35;1.20;;;23.70;88.90;;;;;;4986439;28;20030;-76
2022/09/08 07:27:04;;;;;;;5.57;1.60;;;23.80;88.90;;;;;;4989591;28;20041;-77
2022/09/08 07:29:31;;;;;;;5.72;2.00;;;23.70;88.80;;;;;;4994884;28;20026;-77
2022/09/08 07:31:58;;;;;;;5.28;1.63;;;23.80;88.70;;;;;;4995220;28;20026;-77
2022/09/08 07:34:26;;;;;;;6.63;1.92;;;23.80;88.60;;;;;;4976855;28;20025;-76
2022/09/08 07:36:57;;;;;;;8.93;2.03;;;23.70;88.30;;;;;;4990907;28;20026;-76
2022/09/08 07:39:38;;;;;;;9.23;1.90;;;23.80;88.40;;;;;;4972843;28;20034;-76
2022/09/08 07:42:05;;;;;;;5.78;1.48;;;23.70;88.30;;;;;;4995305;28;20463;-77
2022/09/08 07:44:33;;;;;;;7.90;1.88;;;23.70;88.30;;;;;;4994234;28;20026;-77
2022/09/08 07:47:26;;;;;;;5.78;1.60;;;23.70;88.30;;;;;;4976779;28;20078;-74
2022/09/08 07:53:42;;;;;;;6.82;1.85;;;23.70;88.20;;;;;;4986525;28;20108;-76
2022/09/08 07:56:13;;;;;;;6.50;1.95;;;23.70;88.30;;;;;;4993669;28;20415;-76
2022/09/08 07:59:05;;;;;;;5.75;1.58;;;23.70;88.40;;;;;;4994691;28;20069;-75
2022/09/08 08:02:10;;;;;;;6.28;1.52;;;23.70;88.60;;;;;;4993521;28;20058;-76
2022/09/08 08:05:16;;;;;;;6.60;1.27;;;23.80;88.20;;;;;;4988597;28;20117;-76
2022/09/08 08:08:02;;;;;;;6.43;1.10;;;23.80;88.10;;;;;;4988768;28;20035;-75
2022/09/08 08:10:43;;;;;;;5.18;1.40;;;23.70;88.00;;;;;;4973655;28;20022;-75
2022/09/08 08:13:25;;;;;;;12.80;1.50;;;23.70;87.90;;;;;;4992131;28;20101;-75
2022/09/08 08:16:09;;;;;;;4.35;0.90;;;23.70;88.10;;;;;;4994123;28;20031;-75
2022/09/08 08:18:59;;;;;;;6.82;1.45;;;23.80;88.10;;;;;;4994493;28;20049;-74
2022/09/08 08:21:35;;;;;;;4.15;1.10;;;23.70;88.20;;;;;;4975179;28;20074;-75
2022/09/08 08:24:22;;;;;;;6.03;1.10;;;23.80;88.20;;;;;;4992576;28;20058;-76
2022/09/08 08:27:08;;;;;;;4.88;0.93;;;23.80;88.00;;;;;;4988986;28;20046;-75
2022/09/08 08:30:03;;;;;;;6.65;1.50;;;23.80;87.90;;;;;;4986793;28;20061;-77
2022/09/08 08:32:36;;;;;;;4.57;0.90;;;23.80;87.80;;;;;;4993330;28;20117;-77
2022/09/08 08:35:09;;;;;;;6.07;1.05;;;23.90;87.60;;;;;;4992716;28;20023;-77
2022/09/08 08:37:38;;;;;;;3.80;1.05;;;23.90;87.70;;;;;;4993416;28;20038;-78
2022/09/08 08:40:24;;;;;;;3.83;1.08;;;23.90;87.50;;;;;;4993185;28;20375;-77
2022/09/08 08:43:07;;;;;;;6.15;1.30;;;23.90;87.40;;;;;;4991228;28;20066;-77
2022/09/08 08:45:42;;;;;;;3.97;1.05;;;24.00;87.10;;;;;;4975869;28;20034;-77
2022/09/08 08:48:36;;;;;;;4.45;1.10;;;24.00;87.10;;;;;;4994288;28;20034;-76
2022/09/08 08:51:23;;;;;;;5.65;1.40;;;24.00;86.90;;;;;;4993853;28;20014;-77
2022/09/08 08:53:55;;;;;;;5.53;1.33;;;24.00;86.90;;;;;;4993831;28;20399;-76
2022/09/08 08:56:20;;;;;;;5.45;0.77;;;24.00;86.60;;;;;;4994521;28;20022;-77
2022/09/08 08:59:11;;;;;;;3.40;0.82;;;24.10;86.50;;;;;;4994114;28;20109;-76
2022/09/08 09:01:45;;;;;;;5.88;1.30;;;24.10;86.50;;;;;;4993872;28;20551;-76
2022/09/08 09:04:38;;;;;;;7.68;1.40;;;24.10;86.00;;;;;;4994134;28;20121;-76
2022/09/08 09:07:21;;;;;;;3.95;0.95;;;24.10;85.60;;;;;;4993517;28;20446;-78
2022/09/08 09:10:05;;;;;;;14.48;1.73;;;24.10;85.40;;;;;;4993904;28;20467;-74
2022/09/08 09:13:18;;;;;;;4.88;1.10;;;24.30;82.50;;;;;;4975961;28;20089;-74
2022/09/08 09:15:55;;;;;;;3.95;1.10;;;24.60;80.00;;;;;;4993760;28;20108;-74
2022/09/08 09:18:51;;;;;;;4.05;0.85;;;24.80;78.80;;;;;;4994183;28;20034;-73
2022/09/08 09:21:38;;;;;;;3.10;1.20;;;24.80;77.20;;;;;;4993452;28;20024;-74
2022/09/08 09:24:22;;;;;;;2.70;0.68;;;24.90;77.30;;;;;;4993095;28;20069;-73
2022/09/08 09:26:50;;;;;;;4.38;0.95;;;24.90;76.70;;;;;;4993620;28;20142;-74
2022/09/08 09:29:24;;;;;;;4.28;1.00;;;24.90;76.80;;;;;;4993617;28;20368;-74
2022/09/08 09:32:01;;;;;;;3.53;1.00;;;24.80;76.50;;;;;;4993255;28;20034;-73
2022/09/08 09:34:45;;;;;;;2.47;0.65;;;25.00;75.60;;;;;;4984569;28;20037;-74
2022/09/08 09:37:38;;;;;;;3.53;0.60;;;24.90;75.60;;;;;;4991954;28;20026;-73
2022/09/08 09:40:41;;;;;;;5.45;0.98;;;24.90;75.80;;;;;;4991276;28;20157;-74
2022/09/08 09:43:22;;;;;;;2.97;0.57;;;24.90;75.70;;;;;;4978485;28;20106;-74
2022/09/08 09:46:10;;;;;;;4.72;0.88;;;24.90;75.70;;;;;;4991961;28;20061;-73
2022/09/08 09:49:21;;;;;;;2.05;0.60;;;24.90;76.90;;;;;;4986282;28;20571;-73
2022/09/08 09:52:10;;;;;;;3.47;1.02;;;24.80;77.40;;;;;;4989768;28;20026;-73
2022/09/08 09:54:41;;;;;;;2.60;0.63;;;24.80;76.70;;;;;;4971623;28;20553;-73
2022/09/08 09:57:37;;;;;;;3.00;0.65;;;24.80;76.40;;;;;;4969602;28;20030;-72
2022/09/08 10:00:12;;;;;;;5.15;0.82;;;24.90;77.10;;;;;;5001134;28;20026;-72
2022/09/08 10:02:57;;;;;;;3.67;0.90;;;24.90;76.30;;;;;;4992692;28;20034;-72
2022/09/08 10:05:59;;;;;;;4.90;1.35;;;24.90;76.10;;;;;;4973826;28;20041;-70
2022/09/08 10:08:45;;;;;;;4.67;1.20;;;24.90;76.60;;;;;;4992958;28;20442;-70
2022/09/08 10:11:26;;;;;;;7.13;1.15;;;25.00;75.60;;;;;;4995621;28;20280;-70
2022/09/08 10:14:32;;;;;;;13.80;1.60;;;25.10;76.50;;;;;;4981150;28;20689;-69
2022/09/08 10:17:00;;;;;;;5.78;1.20;;;25.00;76.80;;;;;;4994687;28;20057;-69
2022/09/08 10:19:58;;;;;;;5.75;1.08;;;24.90;76.20;;;;;;4996002;28;20036;-69
2022/09/08 10:22:35;;;;;;;8.25;1.10;;;24.80;76.50;;;;;;4997592;28;20631;-70
2022/09/08 10:25:01;;;;;;;11.32;1.85;;;25.00;76.10;;;;;;4993235;28;20463;-72
2022/09/08 10:28:06;;;;;;;7.57;1.40;;;24.80;77.70;;;;;;4990333;28;20031;-69
2022/09/08 10:31:08;;;;;;;7.45;1.15;;;24.60;79.70;;;;;;4972130;28;20089;-68
2022/09/08 10:33:55;;;;;;;9.82;1.50;;;24.50;78.90;;;;;;4983272;28;20154;-68
2022/09/08 10:36:35;;;;;;;4.82;1.05;;;24.60;79.10;;;;;;4985217;28;20085;-68
2022/09/08 10:39:21;;;;;;;9.85;1.67;;;24.40;79.30;;;;;;4979475;28;20022;-69
2022/09/08 10:41:59;;;;;;;7.80;1.40;;;24.40;78.50;;;;;;4994641;28;20034;-65
2022/09/08 10:44:34;;;;;;;6.43;1.33;;;24.40;78.10;;;;;;4992068;28;20109;-71
2022/09/08 10:47:34;;;;;;;4.93;1.42;;;24.40;77.70;;;;;;4994805;28;20066;-73
2022/09/08 10:50:17;;;;;;;5.38;1.08;;;24.40;77.90;;;;;;4994991;28;20073;-72
2022/09/08 10:53:12;;;;;;;10.27;1.85;;;24.40;77.90;;;;;;4993655;28;20391;-72
2022/09/08 10:55:55;;;;;;;8.00;1.17;;;24.50;77.60;;;;;;4989304;28;20430;-70
2022/09/08 10:58:50;;;;;;;6.88;1.48;;;24.50;77.70;;;;;;4990749;28;20032;-75
2022/09/08 11:01:56;;;;;;;6.57;1.42;;;24.60;78.20;;;;;;4969565;28;20069;-74
2022/09/08 11:04:25;;;;;;;5.38;0.95;;;24.50;78.40;;;;;;4995115;28;20471;-73
2022/09/08 11:07:32;;;;;;;8.02;1.58;;;24.50;78.10;;;;;;4993076;28;20121;-69
2022/09/08 11:10:22;;;;;;;8.18;1.25;;;24.50;78.20;;;;;;4990748;28;20077;-69
2022/09/08 11:13:03;;;;;;;9.10;1.27;;;24.60;78.00;;;;;;4995167;28;20177;-64
2022/09/08 11:15:34;;;;;;;8.68;1.20;;;24.60;78.10;;;;;;4994251;28;20052;-69
2022/09/08 11:18:26;;;;;;;5.53;1.45;;;24.60;78.40;;;;;;4985345;28;20034;-77
2022/09/08 11:20:55;;;;;;;7.30;1.85;;;24.60;78.20;;;;;;4991646;28;20031;-67
2022/09/08 11:23:53;;;;;;;6.03;1.60;;;24.70;78.30;;;;;;4994425;28;20026;-68
2022/09/08 11:26:45;;;;;;;6.28;1.48;;;24.60;79.10;;;;;;4993996;28;20042;-72
2022/09/08 11:29:15;;;;;;;8.20;1.52;;;24.70;78.80;;;;;;4995242;28;20018;-73
2022/09/08 11:32:07;;;;;;;8.13;1.60;;;24.70;78.30;;;;;;4992902;28;20077;-74
2022/09/08 11:35:00;;;;;;;4.25;1.17;;;24.70;78.40;;;;;;4996566;28;20097;-73
2022/09/08 11:37:49;;;;;;;5.53;1.02;;;24.70;78.20;;;;;;4995769;28;20037;-75
2022/09/08 11:40:36;;;;;;;8.85;1.50;;;24.70;77.40;;;;;;4995362;28;20095;-73
2022/09/08 11:43:42;;;;;;;5.00;1.45;;;24.70;77.20;;;;;;4995143;28;20033;-71
2022/09/08 11:46:30;;;;;;;8.75;1.23;;;24.70;77.80;;;;;;4994171;28;20053;-69
2022/09/08 11:49:22;;;;;;;5.78;1.20;;;24.60;76.80;;;;;;4995626;28;20026;-73
2022/09/08 11:52:16;;;;;;;6.93;1.40;;;24.70;76.90;;;;;;4995122;28;20034;-71
2022/09/08 11:55:00;;;;;;;6.15;1.33;;;24.70;76.80;;;;;;4995472;28;20452;-71
2022/09/08 11:57:37;;;;;;;6.45;1.20;;;24.70;76.90;;;;;;4994761;28;20541;-69
2022/09/08 12:00:39;;;;;;;4.97;1.13;;;24.70;76.70;;;;;;4994942;28;20109;-70
2022/09/08 12:03:23;;;;;;;;;;;24.70;76.70;;;;;;4995308;28;20046;-69
2022/09/08 12:06:05;;;;;;;7.63;1.42;;;24.90;76.30;;;;;;4994400;28;20508;-69
2022/09/08 12:08:39;;;;;;;4.28;0.90;;;24.80;75.90;;;;;;4994994;28;20034;-69
2022/09/08 12:11:23;;;;;;;7.22;1.25;;;24.80;76.00;;;;;;4993362;28;20030;-70
2022/09/08 12:14:01;;;;;;;4.40;1.33;;;24.80;76.00;;;;;;4994947;28;20081;-69
2022/09/08 12:16:57;;;;;;;5.75;1.15;;;24.80;75.70;;;;;;4977299;28;20022;-72
2022/09/08 12:20:04;;;;;;;7.00;1.10;;;24.70;78.50;;;;;;4993970;28;20037;-72
2022/09/08 12:23:04;;;;;;;3.55;0.70;;;24.80;77.70;;;;;;4956625;28;20049;-72
2022/09/08 12:25:29;;;;;;;4.15;0.95;;;24.80;77.60;;;;;;4993719;28;20065;-72
2022/09/08 12:28:18;;;;;;;5.75;1.20;;;24.80;77.40;;;;;;4994058;28;20037;-72
2022/09/08 12:31:11;;;;;;;4.95;0.77;;;24.80;77.70;;;;;;4993126;28;20050;-72
2022/09/08 12:34:09;;;;;;;4.60;0.98;;;24.80;77.70;;;;;;4993707;28;20058;-72
2022/09/08 12:36:37;;;;;;;3.78;1.15;;;24.80;77.80;;;;;;4989698;28;20038;-71
2022/09/08 12:39:21;;;;;;;7.72;1.20;;;24.80;77.30;;;;;;4993516;28;20030;-72
2022/09/08 12:42:15;;;;;;;4.55;0.93;;;24.80;77.00;;;;;;5069966;28;20883;-73
2022/09/08 12:45:18;;;;;;;4.10;1.13;;;24.90;77.10;;;;;;5069130;28;20025;-73
2022/09/08 12:48:03;;;;;;;5.60;1.30;;;24.80;77.40;;;;;;5065644;28;20056;-73
2022/09/08 12:50:47;;;;;;;5.68;1.30;;;24.80;79.50;;;;;;5068235;28;20472;-73
2022/09/08 12:53:31;;;;;;;5.90;0.98;;;24.90;79.40;;;;;;5070588;28;20090;-73
2022/09/08 12:56:19;;;;;;;3.97;1.08;;;24.90;79.80;;;;;;5071244;28;20465;-74
2022/09/08 12:59:02;;;;;;;5.43;1.40;;;24.90;81.90;;;;;;5081727;28;20048;-73
2022/09/08 13:01:46;;;;;;;8.27;1.17;;;24.80;82.70;;;;;;5082028;28;20090;-74
2022/09/08 13:04:51;;;;;;;5.68;1.00;;;24.80;82.80;;;;;;5071555;28;20021;-73
2022/09/08 13:07:49;;;;;;;6.38;1.38;;;24.70;83.90;;;;;;5070352;28;20025;-74
2022/09/08 13:10:20;;;;;;;4.25;0.88;;;24.80;84.00;;;;;;5076913;28;20127;-74
2022/09/08 13:13:23;;;;;;;2.85;0.80;;;24.80;84.40;;;;;;5080522;28;20495;-73
2022/09/08 13:16:02;;;;;;;4.18;0.88;;;24.60;85.50;;;;;;5065076;28;20075;-73
2022/09/08 13:18:36;;;;;;;3.95;0.85;;;24.60;86.00;;;;;;5069610;28;20029;-74
2022/09/08 13:21:20;;;;;;;2.72;0.85;;;24.60;86.40;;;;;;5077083;28;20135;-73
2022/09/08 13:24:06;;;;;;;4.40;1.05;;;24.60;86.50;;;;;;5074230;28;20457;-74
2022/09/08 13:26:37;;;;;;;5.35;1.40;;;24.70;86.60;;;;;;5054156;28;20035;-73
2022/09/08 13:29:18;;;;;;;6.20;1.25;;;24.60;87.00;;;;;;5073043;28;20040;-73
2022/09/08 13:32:12;;;;;;;3.78;0.98;;;24.60;86.60;;;;;;5060309;28;20032;-73
2022/09/08 13:35:02;;;;;;;6.10;1.27;;;24.70;86.80;;;;;;5057059;28;20382;-74
2022/09/08 13:37:58;;;;;;;5.85;1.00;;;24.70;86.90;;;;;;5058343;28;20029;-74
2022/09/08 13:40:35;;;;;;;2.30;0.88;;;24.60;86.90;;;;;;5046853;28;20502;-74
2022/09/08 13:43:21;;;;;;;4.50;1.40;;;24.60;86.30;;;;;;5047811;28;20043;-73
2022/09/08 13:45:47;;;;;;;6.15;1.20;;;24.70;86.70;;;;;;5052796;28;20064;-74